Search for airport 
image banner adimage banner adimage banner ad
image banner ad

CN42 - Double Creek Ranch

Located in Manton, United States

ICAO - CN42, IATA -

Data provided by Airmate  

General information

Coordinates: N40°26'45" W121°52'56"
Elevation is 2030 feet MSL.
Magnetic variation is 17° East
View others Airports in California

Operational data

Special qualification required
Current time UTC:
Current local time:
Weather at : KRDD - Redding Muni ( 35 km )
METAR: KRDD 231353Z 35008KT 10SM CLR 23/04 A3000 RMK AO2 SLP153 T02330039
TAF: KRDD 231120Z 2312/2412 36009KT P6SM SKC FM231700 36014G23KT P6SM SKC FM240000 35006KT P6SM FEW250
View NOTAMs / SUP AIP / TFR affecting this airport [VIEW]
Communications frequencies: [VIEW]

Runways:

RWY identifierQFULength (ft)Width (ft)SurfaceLDA (ft)
06340080OTHER
24340080OTHER

Airport contact information

Address: Manton United States

Satellite view of CN42